Time;durP1;ratioP1;P1;durP2;ratioP2;P2;SDS_P1;SDS_P2;PMS_P1;PMS_P2;Temp;Humidity;BMP_temperature;BMP_pressure;BME280_temperature;BME280_humidity;BME280_pressure;Samples;Min_cycle;Max_cycle;Signal;HPM_P1;HPM_P2
2022/01/08 00:01:12;;;;;;;3.92;2.97;;;2.40;99.90;;;;;;5113346;28;20020;-88
2022/01/08 00:03:41;;;;;;;3.92;3.28;;;2.40;99.90;;;;;;5094953;28;20024;-88
2022/01/08 00:06:23;;;;;;;9.30;4.15;;;2.40;99.90;;;;;;5113328;28;20047;-88
2022/01/08 00:08:49;;;;;;;3.10;2.75;;;2.40;99.90;;;;;;5113044;28;20041;-87
2022/01/08 00:11:19;;;;;;;5.22;3.40;;;2.50;99.90;;;;;;5113424;28;20028;-88
2022/01/08 00:13:51;;;;;;;4.32;3.00;;;2.40;99.90;;;;;;5095069;28;20122;-88
2022/01/08 00:16:17;;;;;;;3.38;3.08;;;2.50;99.90;;;;;;5095045;28;20015;-88
2022/01/08 00:18:42;;;;;;;2.80;2.60;;;2.50;99.90;;;;;;5095139;28;20027;-87
2022/01/08 00:21:08;;;;;;;4.63;3.45;;;2.60;99.90;;;;;;5113163;28;20102;-86
2022/01/08 00:23:34;;;;;;;3.60;3.05;;;2.50;99.90;;;;;;5112878;28;20015;-88
2022/01/08 00:25:59;;;;;;;3.40;2.90;;;2.50;99.90;;;;;;5113014;28;20031;-87
2022/01/08 00:28:43;;;;;;;4.07;3.13;;;2.50;99.90;;;;;;5113072;28;20051;-88
2022/01/08 00:31:11;;;;;;;6.93;3.45;;;2.50;99.90;;;;;;5094915;28;20390;-88
2022/01/08 00:33:38;;;;;;;3.90;2.90;;;2.50;99.90;;;;;;5113019;28;20028;-87
2022/01/08 00:36:27;;;;;;;7.15;2.88;;;2.40;99.90;;;;;;5113087;28;20110;-88
2022/01/08 00:38:53;;;;;;;3.95;3.28;;;2.40;99.90;;;;;;5094558;28;20020;-87
2022/01/08 00:41:29;;;;;;;4.22;2.92;;;2.40;99.90;;;;;;5112736;28;20024;-87
2022/01/08 00:43:54;;;;;;;3.05;2.75;;;2.40;99.90;;;;;;5112839;28;20030;-87
2022/01/08 00:46:20;;;;;;;3.00;2.72;;;2.40;99.90;;;;;;5112957;28;20015;-87
2022/01/08 00:48:51;;;;;;;4.45;3.35;;;2.40;99.90;;;;;;5112876;28;20443;-88
2022/01/08 00:51:17;;;;;;;3.42;2.83;;;2.40;99.90;;;;;;5112776;28;20108;-88
2022/01/08 00:53:42;;;;;;;4.47;3.28;;;2.50;99.90;;;;;;5112694;28;20439;-87
2022/01/08 00:56:08;;;;;;;5.28;2.97;;;2.40;99.90;;;;;;5112936;28;20028;-88
2022/01/08 00:58:34;;;;;;;3.17;2.88;;;2.40;99.90;;;;;;5112766;28;20051;-87
2022/01/08 01:00:59;;;;;;;4.68;3.17;;;2.40;99.90;;;;;;5112558;28;20099;-87
2022/01/08 01:03:27;;;;;;;4.25;3.47;;;2.40;99.90;;;;;;5112466;28;20073;-87
2022/01/08 01:05:53;;;;;;;3.45;2.67;;;2.30;99.90;;;;;;5115119;28;20576;-88
2022/01/08 01:08:19;;;;;;;6.95;2.75;;;2.30;99.90;;;;;;5098452;28;20020;-87
2022/01/08 01:10:44;;;;;;;4.22;3.25;;;2.30;99.90;;;;;;5116749;28;20031;-88
2022/01/08 01:13:10;;;;;;;7.07;3.38;;;2.30;99.90;;;;;;5116539;28;20114;-88
2022/01/08 01:15:35;;;;;;;5.03;3.42;;;2.20;99.90;;;;;;5116701;28;20012;-88
2022/01/08 01:18:01;;;;;;;4.85;3.42;;;2.30;99.90;;;;;;5116891;28;20471;-88
2022/01/08 01:20:30;;;;;;;4.70;3.28;;;2.20;99.90;;;;;;5098310;28;20080;-89
2022/01/08 01:23:02;;;;;;;4.88;3.13;;;2.20;99.90;;;;;;5116326;28;20023;-89
2022/01/08 01:25:50;;;;;;;3.72;3.05;;;2.10;99.90;;;;;;5116522;28;20463;-88
2022/01/08 01:47:13;;;;;;;5.75;4.00;;;1.80;99.90;;;;;;5075481;28;20071;-88
2022/01/08 01:49:51;;;;;;;7.15;3.97;;;1.70;99.90;;;;;;5093966;28;20036;-88
2022/01/08 01:52:16;;;;;;;3.63;2.88;;;1.60;99.90;;;;;;5115781;28;20024;-88
2022/01/08 01:54:43;;;;;;;4.45;3.70;;;1.60;99.90;;;;;;5097820;28;20554;-88
2022/01/08 01:57:28;;;;;;;6.10;4.05;;;1.60;99.90;;;;;;5115821;28;20479;-87
2022/01/08 01:59:54;;;;;;;5.20;4.07;;;1.60;99.90;;;;;;5115640;28;20028;-87
2022/01/08 02:02:20;;;;;;;7.85;5.05;;;1.60;99.90;;;;;;5104742;28;20522;-88
2022/01/08 02:04:46;;;;;;;8.77;4.20;;;1.70;99.90;;;;;;5094430;28;20402;-88
2022/01/08 02:07:11;;;;;;;6.05;4.40;;;1.80;99.90;;;;;;5113833;28;20024;-88
2022/01/08 02:09:39;;;;;;;9.18;4.15;;;2.00;99.90;;;;;;5097432;28;20023;-88
2022/01/08 02:12:30;;;;;;;8.35;4.20;;;2.00;99.90;;;;;;5110907;28;20026;-88
2022/01/08 02:14:56;;;;;;;5.53;4.35;;;2.10;99.90;;;;;;5088915;28;20019;-87
2022/01/08 02:17:21;;;;;;;4.75;3.78;;;2.20;99.90;;;;;;5107762;28;20027;-87
2022/01/08 02:19:54;;;;;;;13.38;4.47;;;2.20;99.90;;;;;;5095212;28;20028;-88
2022/01/08 02:22:20;;;;;;;11.55;4.53;;;2.10;99.90;;;;;;5105535;28;20031;-89
2022/01/08 02:24:47;;;;;;;8.40;4.32;;;2.20;99.90;;;;;;5088131;28;20103;-89
2022/01/08 02:27:17;;;;;;;5.53;3.85;;;2.20;99.90;;;;;;5095410;28;20032;-89
2022/01/08 02:29:43;;;;;;;5.65;3.60;;;2.30;99.90;;;;;;5113630;28;20022;-87
2022/01/08 02:32:15;;;;;;;7.50;4.22;;;2.30;99.90;;;;;;5097690;28;20032;-88
2022/01/08 02:34:44;;;;;;;9.65;4.40;;;2.30;99.90;;;;;;5076409;28;20069;-88
2022/01/08 02:37:10;;;;;;;4.53;3.60;;;2.30;99.90;;;;;;5104166;28;20019;-88
2022/01/08 02:39:41;;;;;;;4.57;4.05;;;2.30;99.90;;;;;;5094640;28;20027;-88
2022/01/08 02:42:13;;;;;;;8.25;4.22;;;2.30;99.90;;;;;;5086017;28;20388;-87
2022/01/08 02:44:43;;;;;;;3.25;2.95;;;2.30;99.90;;;;;;5096821;28;20028;-87
2022/01/08 02:47:09;;;;;;;4.30;3.47;;;2.30;99.90;;;;;;5096063;28;20028;-87
2022/01/08 02:49:37;;;;;;;5.13;3.70;;;2.30;99.90;;;;;;5096233;28;20027;-87
2022/01/08 02:52:04;;;;;;;7.38;4.20;;;2.30;99.90;;;;;;5108176;28;20020;-88
2022/01/08 02:54:30;;;;;;;5.03;3.60;;;2.30;99.90;;;;;;5096235;28;20486;-88
2022/01/08 02:57:04;;;;;;;6.90;3.53;;;2.40;99.90;;;;;;5115033;28;20020;-88
2022/01/08 02:59:31;;;;;;;6.25;4.05;;;2.40;99.90;;;;;;5114322;28;20028;-87
2022/01/08 03:02:02;;;;;;;6.28;3.50;;;2.30;99.90;;;;;;5114347;28;20027;-87
2022/01/08 03:04:28;;;;;;;7.80;4.35;;;2.30;99.90;;;;;;5114603;28;20093;-87
2022/01/08 03:06:54;;;;;;;7.07;4.30;;;2.30;99.90;;;;;;5114280;28;20110;-87
2022/01/08 03:10:00;;;;;;;6.80;3.83;;;2.30;99.90;;;;;;5114303;28;20459;-87
2022/01/08 03:12:30;;;;;;;6.68;3.90;;;2.40;99.90;;;;;;5114486;28;20518;-88
2022/01/08 03:14:56;;;;;;;6.43;3.58;;;2.40;99.90;;;;;;5096340;28;20027;-87
2022/01/08 03:17:33;;;;;;;9.38;4.10;;;2.30;99.90;;;;;;5114477;28;20016;-88
2022/01/08 03:20:04;;;;;;;6.82;3.95;;;2.30;99.90;;;;;;5114218;28;20035;-87
2022/01/08 03:22:30;;;;;;;9.75;4.20;;;2.30;99.90;;;;;;5113758;28;20068;-87
2022/01/08 03:25:08;;;;;;;9.45;4.10;;;2.30;99.90;;;;;;5114189;28;20216;-87
2022/01/08 03:27:34;;;;;;;10.88;4.32;;;2.30;99.90;;;;;;5095739;28;20479;-86
2022/01/08 03:30:05;;;;;;;8.73;5.05;;;2.30;99.90;;;;;;5095889;28;20027;-87
2022/01/08 03:32:30;;;;;;;5.63;4.28;;;2.30;99.90;;;;;;5095702;28;20106;-88
2022/01/08 03:34:56;;;;;;;7.32;4.47;;;2.30;99.90;;;;;;5095683;28;20080;-88
2022/01/08 03:37:22;;;;;;;8.05;5.10;;;2.30;99.90;;;;;;5113718;28;20027;-89
2022/01/08 03:39:48;;;;;;;8.48;4.82;;;2.30;99.90;;;;;;5113860;28;20055;-88
2022/01/08 03:42:13;;;;;;;6.28;4.50;;;2.30;99.90;;;;;;5095523;28;20140;-89
2022/01/08 03:44:41;;;;;;;5.97;4.40;;;2.30;99.90;;;;;;5095174;28;20019;-89
2022/01/08 03:49:55;;;;;;;5.45;4.10;;;2.30;99.90;;;;;;5113925;28;20042;-90
2022/01/08 03:52:26;;;;;;;7.03;4.18;;;2.30;99.90;;;;;;5095008;28;20050;-89
2022/01/08 03:54:52;;;;;;;8.23;4.30;;;2.30;99.90;;;;;;5088499;28;20381;-89
2022/01/08 03:57:25;;;;;;;5.57;4.40;;;2.30;99.90;;;;;;5109015;28;20023;-90
2022/01/08 03:59:50;;;;;;;9.27;4.32;;;2.40;99.90;;;;;;5113364;28;20031;-90
2022/01/08 04:02:16;;;;;;;10.20;3.88;;;2.30;99.90;;;;;;5095251;28;20490;-89
2022/01/08 04:04:48;;;;;;;9.50;4.45;;;2.30;99.90;;;;;;5113544;28;20016;-89
2022/01/08 04:07:14;;;;;;;7.10;4.03;;;2.30;99.90;;;;;;5113192;28;20036;-89
2022/01/08 04:09:39;;;;;;;7.85;4.10;;;2.30;99.90;;;;;;5095174;28;20088;-89
2022/01/08 04:12:07;;;;;;;15.00;6.53;;;2.30;99.90;;;;;;5095379;28;20027;-90
2022/01/08 04:14:47;;;;;;;6.57;4.63;;;2.30;99.90;;;;;;5113306;28;20037;-89
2022/01/08 04:17:16;;;;;;;8.70;4.28;;;2.30;99.90;;;;;;5073228;28;20024;-89
2022/01/08 04:19:42;;;;;;;15.02;4.70;;;2.50;99.90;;;;;;5073434;28;20099;-89
2022/01/08 04:22:28;;;;;;;12.15;4.75;;;2.30;99.90;;;;;;5112815;28;20036;-89
2022/01/08 04:24:56;;;;;;;15.70;4.82;;;2.30;99.90;;;;;;5113242;28;20447;-90
2022/01/08 04:27:47;;;;;;;6.55;4.70;;;2.30;99.90;;;;;;5113108;28;20020;-90
2022/01/08 04:30:13;;;;;;;14.43;4.32;;;2.30;99.90;;;;;;5094805;28;20027;-90
2022/01/08 04:32:39;;;;;;;11.63;6.18;;;2.40;99.90;;;;;;5113200;28;20536;-90
2022/01/08 04:35:09;;;;;;;8.90;5.13;;;2.30;99.90;;;;;;5095094;28;20031;-90
2022/01/08 04:37:35;;;;;;;10.25;4.82;;;2.30;99.90;;;;;;5086836;28;20054;-89
2022/01/08 04:40:00;;;;;;;9.95;4.90;;;2.20;99.90;;;;;;5114118;28;20062;-90
2022/01/08 04:42:26;;;;;;;10.20;5.00;;;2.20;99.90;;;;;;5117040;28;20027;-89
2022/01/08 04:44:54;;;;;;;12.98;4.57;;;2.20;99.90;;;;;;5098734;28;20027;-90
2022/01/08 04:47:19;;;;;;;12.45;4.97;;;2.20;99.90;;;;;;5117151;28;20020;-89
2022/01/08 04:49:52;;;;;;;8.90;4.38;;;2.20;99.90;;;;;;5098946;28;20085;-90
2022/01/08 04:52:18;;;;;;;13.10;5.07;;;2.20;99.90;;;;;;5098456;28;20103;-89
2022/01/08 04:54:43;;;;;;;15.98;5.25;;;2.20;99.90;;;;;;5117049;28;20420;-89
2022/01/08 04:57:14;;;;;;;6.82;4.30;;;2.10;99.90;;;;;;5098348;28;20020;-89
2022/01/08 04:59:40;;;;;;;10.98;5.22;;;2.20;99.90;;;;;;5117173;28;20047;-88
2022/01/08 05:02:06;;;;;;;12.20;4.05;;;2.20;99.90;;;;;;5116881;28;20062;-89
2022/01/08 05:04:32;;;;;;;8.57;4.03;;;2.20;99.90;;;;;;5117010;28;20463;-89
2022/01/08 05:06:58;;;;;;;8.77;3.85;;;2.20;99.90;;;;;;5094750;28;20047;-90
2022/01/08 05:09:24;;;;;;;8.00;4.30;;;2.20;99.90;;;;;;5096780;28;20025;-89
2022/01/08 05:11:49;;;;;;;10.05;4.15;;;2.20;99.90;;;;;;5096558;28;20020;-89
2022/01/08 05:14:18;;;;;;;6.72;4.40;;;2.20;99.90;;;;;;5096568;28;20024;-90
2022/01/08 05:16:45;;;;;;;10.82;4.47;;;2.10;99.90;;;;;;5096519;28;20058;-90
2022/01/08 05:19:11;;;;;;;12.32;4.95;;;2.10;99.90;;;;;;5096362;28;20076;-88
2022/01/08 05:21:39;;;;;;;9.68;4.80;;;2.20;99.90;;;;;;5095881;28;20020;-90
2022/01/08 05:24:05;;;;;;;10.52;4.57;;;2.10;99.90;;;;;;5096346;28;20020;-90
2022/01/08 05:26:30;;;;;;;7.03;3.97;;;2.20;99.90;;;;;;5095348;28;20388;-89
2022/01/08 05:28:56;;;;;;;16.02;5.22;;;2.20;99.90;;;;;;5116619;28;20047;-90
2022/01/08 05:31:23;;;;;;;9.02;4.45;;;2.20;99.90;;;;;;5116546;28;20106;-90
2022/01/08 05:33:50;;;;;;;9.43;4.68;;;2.20;99.90;;;;;;5116357;28;20023;-90
2022/01/08 05:36:16;;;;;;;14.82;4.22;;;2.20;99.90;;;;;;5097884;28;20027;-90
2022/01/08 05:38:42;;;;;;;10.40;4.30;;;2.20;99.90;;;;;;5098206;28;20039;-89
2022/01/08 05:41:09;;;;;;;11.68;5.05;;;2.20;99.90;;;;;;5116487;28;20045;-89
2022/01/08 05:43:46;;;;;;;8.13;4.53;;;2.20;99.90;;;;;;5116451;28;20027;-91
2022/01/08 05:46:12;;;;;;;11.57;5.00;;;2.20;99.90;;;;;;5116170;28;20356;-90
2022/01/08 05:48:40;;;;;;;22.58;4.28;;;2.20;99.90;;;;;;5116103;28;20091;-91
2022/01/08 05:51:06;;;;;;;7.38;4.22;;;2.20;99.90;;;;;;5115889;28;20019;-90
2022/01/08 05:53:31;;;;;;;9.05;4.47;;;2.20;99.90;;;;;;5097325;28;20030;-88
2022/01/08 05:56:08;;;;;;;10.80;4.03;;;2.20;99.90;;;;;;5116063;28;20020;-90
2022/01/08 05:58:34;;;;;;;12.07;4.95;;;2.20;99.90;;;;;;5116051;28;20102;-89
2022/01/08 06:00:59;;;;;;;8.50;4.88;;;2.20;99.90;;;;;;5097563;28;20454;-91
2022/01/08 06:03:39;;;;;;;8.50;4.75;;;2.20;99.90;;;;;;5115968;28;20028;-90
2022/01/08 06:06:05;;;;;;;5.60;4.32;;;2.20;99.90;;;;;;5115194;28;20061;-90
2022/01/08 06:08:48;;;;;;;7.35;4.28;;;2.30;99.90;;;;;;5097631;28;20110;-90
2022/01/08 06:11:13;;;;;;;13.07;4.68;;;2.30;99.90;;;;;;5115789;28;20110;-89
2022/01/08 06:13:39;;;;;;;7.28;4.65;;;2.30;99.90;;;;;;5115503;28;20123;-90
2022/01/08 06:16:08;;;;;;;14.27;4.50;;;2.30;99.90;;;;;;5097379;28;20498;-90
2022/01/08 06:18:37;;;;;;;9.18;4.57;;;2.30;99.90;;;;;;5115733;28;20035;-90
2022/01/08 06:21:04;;;;;;;7.68;4.07;;;2.30;99.90;;;;;;5096770;28;20043;-89
2022/01/08 06:23:38;;;;;;;8.95;4.47;;;2.30;99.90;;;;;;5097047;28;20027;-90
2022/01/08 06:26:05;;;;;;;10.23;4.88;;;2.20;99.90;;;;;;5097126;28;20047;-89
2022/01/08 06:28:31;;;;;;;10.75;5.80;;;2.20;99.90;;;;;;5115141;28;20051;-90
2022/01/08 06:30:56;;;;;;;13.15;4.82;;;2.20;99.90;;;;;;5097057;28;20066;-89
2022/01/08 06:33:22;;;;;;;13.23;5.40;;;2.20;99.90;;;;;;5115369;28;20038;-89
2022/01/08 06:36:01;;;;;;;12.48;4.63;;;2.30;99.90;;;;;;5096961;28;20039;-90
2022/01/08 06:38:27;;;;;;;13.07;4.47;;;2.20;99.90;;;;;;5114700;28;20475;-90
2022/01/08 06:40:52;;;;;;;18.73;6.93;;;2.20;99.90;;;;;;5096703;28;20077;-90
2022/01/08 06:43:40;;;;;;;11.30;4.95;;;2.20;99.90;;;;;;5114774;28;20031;-91
2022/01/08 06:46:06;;;;;;;13.60;4.03;;;2.20;99.90;;;;;;5096563;28;20023;-91
2022/01/08 06:48:31;;;;;;;8.07;3.75;;;2.20;99.90;;;;;;5114985;28;20022;-91
2022/01/08 06:50:58;;;;;;;9.63;4.57;;;2.20;99.90;;;;;;5114530;28;20039;-90
2022/01/08 06:53:24;;;;;;;12.43;4.88;;;2.20;99.90;;;;;;5114624;28;20023;-91
2022/01/08 06:55:49;;;;;;;6.38;3.83;;;2.20;99.90;;;;;;5114110;28;20049;-91
2022/01/08 06:58:15;;;;;;;8.95;4.05;;;2.10;99.90;;;;;;5094488;28;20156;-91
2022/01/08 07:00:41;;;;;;;11.48;3.80;;;2.10;99.90;;;;;;5096006;28;20031;-90
2022/01/08 07:03:10;;;;;;;12.23;4.63;;;2.20;99.90;;;;;;5094832;28;20027;-90
2022/01/08 07:05:36;;;;;;;12.60;4.63;;;2.30;99.90;;;;;;5090903;28;20044;-89
2022/01/08 07:08:04;;;;;;;8.85;4.10;;;2.30;99.90;;;;;;5059139;28;20102;-91
2022/01/08 07:10:31;;;;;;;13.07;4.38;;;2.30;99.90;;;;;;5068104;28;20054;-90
2022/01/08 07:12:57;;;;;;;11.43;4.57;;;2.40;99.90;;;;;;5059654;28;20043;-89
2022/01/08 07:15:25;;;;;;;14.45;5.15;;;2.30;99.90;;;;;;5073679;28;20028;-88
2022/01/08 07:17:50;;;;;;;6.32;4.25;;;2.30;99.90;;;;;;5072447;28;20073;-89
2022/01/08 07:20:16;;;;;;;8.85;4.43;;;2.30;99.90;;;;;;5073695;28;20037;-89
2022/01/08 07:23:05;;;;;;;8.00;4.68;;;2.30;99.90;;;;;;5073269;28;20056;-90
2022/01/08 07:25:31;;;;;;;7.78;4.63;;;2.20;99.90;;;;;;5072332;28;20098;-89
2022/01/08 07:27:57;;;;;;;9.02;4.20;;;2.20;99.90;;;;;;5075533;28;20058;-90
2022/01/08 07:30:26;;;;;;;9.27;3.55;;;2.20;99.90;;;;;;5093384;28;20031;-89
2022/01/08 07:32:52;;;;;;;7.70;4.20;;;2.20;99.90;;;;;;5075364;28;20383;-89
2022/01/08 07:35:21;;;;;;;9.20;4.70;;;2.30;99.90;;;;;;5060682;28;20025;-89
2022/01/08 07:38:05;;;;;;;10.65;4.55;;;2.20;99.90;;;;;;5055093;28;20036;-89
2022/01/08 07:40:31;;;;;;;9.27;5.25;;;2.20;99.90;;;;;;5073390;28;20481;-89
2022/01/08 07:42:57;;;;;;;8.80;4.38;;;2.10;99.90;;;;;;5054945;28;20021;-89
2022/01/08 07:45:22;;;;;;;9.52;4.78;;;2.00;99.90;;;;;;5073838;28;20063;-89
2022/01/08 07:47:48;;;;;;;9.48;4.80;;;2.00;99.90;;;;;;5069733;28;20032;-89
2022/01/08 07:50:14;;;;;;;9.18;4.53;;;1.90;99.90;;;;;;5086259;28;20468;-90
2022/01/08 07:52:40;;;;;;;5.93;4.10;;;1.90;99.90;;;;;;5076691;28;20024;-89
2022/01/08 07:55:07;;;;;;;5.75;4.18;;;1.90;99.90;;;;;;5091427;28;20028;-89
2022/01/08 07:57:32;;;;;;;14.80;4.75;;;1.90;99.90;;;;;;5063772;28;20020;-89
2022/01/08 08:00:01;;;;;;;15.68;6.25;;;1.90;99.90;;;;;;5072332;28;20025;-89
2022/01/08 08:02:26;;;;;;;7.90;4.60;;;1.80;99.90;;;;;;5079862;28;20020;-89
2022/01/08 08:04:52;;;;;;;8.38;4.20;;;1.80;99.90;;;;;;5077777;28;20021;-89
2022/01/08 08:07:36;;;;;;;12.68;4.80;;;1.80;99.90;;;;;;5089919;28;20575;-89
2022/01/08 08:10:03;;;;;;;12.00;5.25;;;1.70;99.90;;;;;;5092754;28;20468;-89
2022/01/08 08:12:29;;;;;;;9.63;5.75;;;1.70;99.90;;;;;;5091235;28;20073;-89
2022/01/08 08:14:55;;;;;;;7.80;4.28;;;1.60;99.90;;;;;;5091619;28;20032;-90
2022/01/08 08:17:20;;;;;;;10.52;4.40;;;1.60;99.90;;;;;;5092735;28;20084;-89
2022/01/08 08:19:46;;;;;;;6.85;4.22;;;1.50;99.90;;;;;;5091506;28;20019;-89
2022/01/08 08:22:11;;;;;;;6.45;4.25;;;1.60;99.90;;;;;;5092276;28;20024;-90
2022/01/08 08:24:37;;;;;;;10.00;5.13;;;1.50;99.90;;;;;;5112592;28;20024;-89
2022/01/08 08:27:03;;;;;;;8.95;4.85;;;1.50;99.90;;;;;;5112566;28;20031;-89
2022/01/08 08:29:29;;;;;;;15.85;5.70;;;1.50;99.90;;;;;;5111938;28;20095;-89
2022/01/08 08:31:57;;;;;;;13.30;6.22;;;1.50;99.90;;;;;;5093843;28;20031;-89
2022/01/08 08:34:23;;;;;;;12.65;5.40;;;1.50;99.90;;;;;;5112508;28;20019;-88
2022/01/08 08:36:48;;;;;;;8.80;5.50;;;1.60;99.90;;;;;;5112260;28;20360;-89
2022/01/08 08:39:14;;;;;;;10.20;5.57;;;1.50;99.90;;;;;;5093750;28;20027;-89
2022/01/08 08:41:40;;;;;;;11.25;6.03;;;1.50;99.90;;;;;;5112285;28;20035;-89
2022/01/08 08:44:05;;;;;;;11.63;4.85;;;1.50;99.90;;;;;;5111645;28;20356;-89
2022/01/08 08:46:31;;;;;;;8.10;4.70;;;1.50;99.90;;;;;;5109242;28;20039;-89
2022/01/08 08:48:56;;;;;;;11.38;4.90;;;1.60;99.90;;;;;;5100395;28;20028;-89
2022/01/08 08:51:22;;;;;;;14.00;5.20;;;1.60;99.90;;;;;;5111843;28;20383;-89
2022/01/08 08:53:49;;;;;;;9.32;5.47;;;1.70;99.90;;;;;;5112066;28;20031;-89
2022/01/08 08:56:14;;;;;;;13.57;6.07;;;1.70;99.90;;;;;;5093880;28;20425;-89
2022/01/08 08:58:40;;;;;;;18.88;7.28;;;1.80;99.90;;;;;;5112242;28;20032;-89
2022/01/08 09:01:06;;;;;;;10.48;5.78;;;1.80;99.90;;;;;;5081681;28;20020;-88
2022/01/08 09:03:31;;;;;;;11.05;5.53;;;1.90;99.90;;;;;;5111814;28;20035;-90
2022/01/08 09:05:57;;;;;;;9.60;5.32;;;1.90;99.90;;;;;;5086354;28;20115;-89
2022/01/08 09:08:23;;;;;;;13.27;6.22;;;1.80;99.90;;;;;;5098703;28;20027;-90
2022/01/08 09:10:48;;;;;;;11.50;5.93;;;1.90;99.90;;;;;;5093145;28;20043;-89
2022/01/08 09:13:14;;;;;;;16.27;6.30;;;1.90;99.90;;;;;;5104764;28;20027;-89
2022/01/08 09:16:00;;;;;;;22.13;6.70;;;2.00;99.90;;;;;;5112276;28;20032;-90
2022/01/08 09:18:25;;;;;;;9.30;4.68;;;2.10;99.90;;;;;;5128497;28;20118;-87
2022/01/08 09:20:51;;;;;;;21.48;5.45;;;2.10;99.90;;;;;;5111150;28;20127;-90
2022/01/08 09:23:20;;;;;;;11.13;4.82;;;2.20;99.90;;;;;;5112435;28;20028;-89
2022/01/08 09:25:45;;;;;;;6.80;3.65;;;2.20;99.90;;;;;;5113100;28;20043;-88
2022/01/08 09:28:11;;;;;;;17.05;3.90;;;2.30;99.90;;;;;;5098440;28;20020;-89
2022/01/08 09:30:38;;;;;;;15.32;4.43;;;2.40;99.90;;;;;;5116094;28;20038;-89
2022/01/08 09:33:05;;;;;;;13.20;4.45;;;2.40;99.90;;;;;;5115916;28;20027;-88
2022/01/08 09:35:30;;;;;;;9.13;3.47;;;2.40;99.90;;;;;;5115971;28;20019;-89
2022/01/08 09:37:59;;;;;;;7.55;4.13;;;2.50;99.90;;;;;;5097376;28;20115;-89
2022/01/08 09:40:25;;;;;;;7.97;3.83;;;2.60;99.90;;;;;;5114360;28;20039;-87
2022/01/08 09:42:51;;;;;;;11.35;4.03;;;2.60;99.90;;;;;;5115250;28;20072;-88
2022/01/08 09:45:20;;;;;;;13.13;3.40;;;2.70;99.90;;;;;;5097716;28;20050;-88
2022/01/08 09:47:46;;;;;;;12.40;3.83;;;2.90;99.90;;;;;;5115899;28;20024;-88
2022/01/08 09:50:12;;;;;;;11.43;3.72;;;2.90;99.90;;;;;;5116277;28;20026;-89
2022/01/08 09:52:57;;;;;;;11.38;4.03;;;2.80;99.90;;;;;;5115481;28;20035;-90
2022/01/08 09:55:26;;;;;;;10.57;3.65;;;2.80;99.90;;;;;;5094014;28;20039;-89
2022/01/08 09:57:52;;;;;;;13.60;3.42;;;2.80;99.90;;;;;;5115565;28;20040;-88
2022/01/08 10:00:19;;;;;;;6.53;3.60;;;2.80;99.90;;;;;;5114876;28;20372;-89
2022/01/08 10:02:45;;;;;;;6.45;3.33;;;2.90;99.90;;;;;;5115267;28;20513;-90
2022/01/08 10:05:14;;;;;;;15.32;3.88;;;2.90;99.90;;;;;;5113499;28;20114;-89
2022/01/08 10:07:41;;;;;;;6.75;3.97;;;2.90;99.90;;;;;;5110497;28;20357;-90
2022/01/08 10:10:12;;;;;;;14.35;3.65;;;2.90;99.90;;;;;;5094105;28;20020;-89
2022/01/08 10:12:50;;;;;;;16.00;4.40;;;3.00;99.90;;;;;;5095216;28;20020;-89
2022/01/08 10:18:22;;;;;;;16.45;4.20;;;3.00;99.90;;;;;;5114349;28;20096;-89
2022/01/08 10:20:50;;;;;;;10.75;4.05;;;3.00;99.90;;;;;;5113933;28;20114;-89
2022/01/08 10:23:24;;;;;;;14.73;4.25;;;3.00;99.90;;;;;;5091355;28;20084;-89
2022/01/08 10:26:20;;;;;;;18.92;4.97;;;3.00;99.90;;;;;;5100285;27;20054;-89
2022/01/08 10:28:53;;;;;;;14.65;5.20;;;3.00;99.90;;;;;;5101657;28;20119;-89
2022/01/08 10:31:46;;;;;;;15.02;4.50;;;3.00;99.90;;;;;;5095026;28;20039;-89
2022/01/08 10:34:15;;;;;;;10.70;3.90;;;3.10;99.90;;;;;;5094180;28;20028;-89
2022/01/08 10:36:49;;;;;;;10.05;4.38;;;3.10;99.90;;;;;;5093363;28;20023;-89
2022/01/08 10:39:31;;;;;;;11.07;4.70;;;3.10;99.90;;;;;;5095437;28;20452;-89
2022/01/08 10:41:58;;;;;;;16.98;4.65;;;3.10;99.90;;;;;;5112780;28;20480;-89
2022/01/08 10:44:26;;;;;;;11.35;4.22;;;3.10;99.90;;;;;;5113940;28;20027;-89
2022/01/08 10:46:57;;;;;;;10.25;4.28;;;3.10;99.90;;;;;;5116723;27;20028;-89
2022/01/08 10:49:31;;;;;;;15.90;4.95;;;3.10;99.90;;;;;;5114604;27;20056;-89
2022/01/08 10:51:57;;;;;;;15.32;4.40;;;3.10;99.90;;;;;;5093075;28;20024;-89
2022/01/08 10:54:29;;;;;;;18.30;4.55;;;3.20;99.90;;;;;;5112605;28;20023;-88
2022/01/08 10:56:56;;;;;;;15.50;4.35;;;3.10;99.90;;;;;;5113752;28;20106;-90
2022/01/08 10:59:24;;;;;;;17.05;5.15;;;3.20;99.90;;;;;;5113695;28;20062;-90
2022/01/08 11:02:08;;;;;;;13.48;4.38;;;3.10;99.90;;;;;;5113619;28;20114;-90
2022/01/08 11:04:39;;;;;;;16.42;4.15;;;3.20;99.90;;;;;;5114008;28;20428;-90
2022/01/08 11:07:10;;;;;;;12.63;5.50;;;3.20;99.90;;;;;;5095347;28;20251;-91
2022/01/08 11:09:38;;;;;;;18.90;7.15;;;3.20;99.90;;;;;;5095579;28;20027;-90
2022/01/08 11:12:06;;;;;;;15.70;4.88;;;3.20;99.90;;;;;;5114007;28;20035;-90
2022/01/08 11:17:19;;;;;;;6.70;4.28;;;3.10;99.90;;;;;;5112421;28;20039;-90
2022/01/08 11:19:54;;;;;;;9.52;4.68;;;3.10;99.90;;;;;;5085359;28;20044;-89
2022/01/08 11:22:23;;;;;;;19.02;7.13;;;3.20;99.90;;;;;;5116525;27;20500;-92
2022/01/08 11:24:57;;;;;;;17.73;5.88;;;3.20;99.90;;;;;;5122188;27;20028;-89
2022/01/08 11:27:48;;;;;;;17.90;6.60;;;3.20;99.90;;;;;;5111685;28;20031;-88
2022/01/08 11:30:15;;;;;;;18.38;5.10;;;3.20;99.90;;;;;;5114058;28;20594;-87
2022/01/08 11:32:41;;;;;;;10.02;5.18;;;3.20;99.90;;;;;;5095131;28;20028;-90
2022/01/08 11:35:10;;;;;;;8.70;4.78;;;3.20;99.90;;;;;;5093190;28;20559;-91
2022/01/08 11:37:36;;;;;;;7.32;3.85;;;3.20;99.90;;;;;;5113055;28;20600;-90
2022/01/08 11:40:06;;;;;;;7.88;4.35;;;3.20;99.90;;;;;;5095491;28;20019;-89
2022/01/08 11:42:37;;;;;;;10.95;3.95;;;3.30;99.90;;;;;;5094054;28;20019;-88
2022/01/08 11:45:05;;;;;;;10.02;4.53;;;3.20;99.90;;;;;;5095418;28;20027;-90
2022/01/08 11:47:31;;;;;;;20.20;4.60;;;3.30;99.90;;;;;;5093823;28;20023;-90
2022/01/08 11:50:00;;;;;;;11.05;4.35;;;3.30;99.90;;;;;;5093186;28;20031;-90
2022/01/08 11:52:26;;;;;;;12.45;4.43;;;3.40;99.90;;;;;;5093733;28;20020;-90
2022/01/08 11:54:52;;;;;;;12.20;4.50;;;3.30;99.90;;;;;;5094280;28;20073;-91
2022/01/08 11:57:24;;;;;;;12.98;4.85;;;3.30;99.90;;;;;;5120815;27;20035;-90
2022/01/08 11:59:56;;;;;;;14.70;5.28;;;3.40;99.90;;;;;;5106040;28;20032;-90
2022/01/08 12:02:34;;;;;;;14.35;5.72;;;3.40;99.90;;;;;;5111894;28;20118;-89
2022/01/08 12:05:00;;;;;;;14.10;5.38;;;3.50;99.90;;;;;;5094737;28;20387;-89
2022/01/08 12:07:31;;;;;;;15.43;6.15;;;3.40;99.90;;;;;;5112453;28;20051;-90
2022/01/08 12:10:13;;;;;;;10.50;5.40;;;3.40;99.90;;;;;;5091549;28;20034;-90
2022/01/08 12:12:49;;;;;;;18.23;5.47;;;3.40;99.90;;;;;;5104723;28;20035;-90
2022/01/08 12:15:36;;;;;;;15.80;5.50;;;3.40;99.90;;;;;;5094179;28;20043;-90
2022/01/08 12:18:01;;;;;;;12.02;5.55;;;3.40;99.90;;;;;;5072445;28;20036;-91
2022/01/08 12:20:50;;;;;;;20.45;6.55;;;3.40;99.90;;;;;;5097686;28;20364;-89
2022/01/08 12:23:34;;;;;;;16.98;5.78;;;3.40;99.90;;;;;;5094146;28;20024;-89
2022/01/08 12:26:28;;;;;;;11.52;5.35;;;3.30;99.90;;;;;;5092570;28;20486;-90
2022/01/08 12:29:00;;;;;;;21.27;7.40;;;3.30;99.90;;;;;;5087910;28;20033;-90
2022/01/08 12:31:37;;;;;;;19.20;5.95;;;3.30;99.90;;;;;;5108158;28;20032;-90
2022/01/08 12:34:28;;;;;;;15.30;5.30;;;3.20;99.90;;;;;;5093312;28;20061;-91
2022/01/08 12:37:01;;;;;;;14.52;5.70;;;3.20;99.90;;;;;;5087465;28;20035;-90
2022/01/08 12:39:48;;;;;;;18.67;6.47;;;3.10;99.90;;;;;;5104201;28;20387;-91
2022/01/08 12:42:35;;;;;;;22.83;8.00;;;3.20;99.90;;;;;;5092646;28;20028;-90
2022/01/08 12:45:13;;;;;;;19.00;6.95;;;3.20;99.90;;;;;;5090591;28;20487;-90
2022/01/08 12:47:54;;;;;;;20.15;7.68;;;3.20;99.90;;;;;;5092322;28;20028;-90
2022/01/08 12:50:43;;;;;;;12.98;6.95;;;3.30;99.90;;;;;;5112462;28;20030;-90
2022/01/08 12:53:12;;;;;;;19.58;6.72;;;3.20;99.90;;;;;;5086624;28;20085;-88
2022/01/08 12:55:55;;;;;;;17.83;6.97;;;3.20;99.90;;;;;;5112254;28;20551;-89
2022/01/08 12:58:32;;;;;;;17.95;6.32;;;3.20;99.90;;;;;;5094126;28;20038;-90
2022/01/08 13:01:09;;;;;;;24.75;7.40;;;3.20;99.90;;;;;;5094936;28;20478;-88
2022/01/08 13:03:44;;;;;;;19.08;7.20;;;3.20;99.90;;;;;;5096425;28;20155;-89
2022/01/08 13:06:14;;;;;;;23.05;6.28;;;3.20;99.90;;;;;;5098269;28;20127;-88
2022/01/08 13:08:42;;;;;;;16.15;6.15;;;3.20;99.90;;;;;;5116771;28;20110;-90
2022/01/08 13:11:11;;;;;;;18.13;5.82;;;3.20;99.90;;;;;;5098386;28;20043;-88
2022/01/08 13:14:14;;;;;;;28.70;7.05;;;3.10;99.90;;;;;;5098151;28;20040;-90
2022/01/08 13:16:45;;;;;;;16.23;5.57;;;3.00;99.90;;;;;;5098704;28;20119;-90
2022/01/08 13:19:25;;;;;;;13.32;5.50;;;3.10;99.90;;;;;;5116317;28;20031;-89
2022/01/08 13:21:57;;;;;;;19.60;5.35;;;3.00;99.90;;;;;;5097879;28;20031;-90
2022/01/08 13:24:27;;;;;;;14.40;5.10;;;3.00;99.90;;;;;;5116477;28;20038;-90
2022/01/08 13:26:59;;;;;;;27.85;6.25;;;3.00;99.90;;;;;;5096134;28;20034;-89
2022/01/08 13:29:31;;;;;;;16.70;4.85;;;3.00;99.90;;;;;;5115978;28;20031;-89
2022/01/08 13:32:12;;;;;;;14.45;4.85;;;3.00;99.90;;;;;;5097405;28;20039;-90
2022/01/08 13:34:52;;;;;;;25.08;5.22;;;3.00;99.90;;;;;;5096516;28;20438;-89